Cagliari / Elmas Airport LIEE

Flugplatz Daten

Name: Cagliari / Elmas Airport

Ident: LIEE

Lat: 39,25149918

Long: 9,054280281

Platzhöhe: 13 ft

IataCode: CAG

City: Cagliari

Homepage: http://www.cagliariairport.it/en/

Metar

2021/12/03 23:20
LIEE 032320Z 35008KT CAVOK 07/05 Q1016

Taf

2021/12/03 18:21
TAF LIEE 031700Z 0318/0418 01014KT 9999 SCT040
Gewünschte Webcam nicht vorhanden? Dann fügen Sie eine hinzu. Sie wird dann so schnell wie möglich freigeschaltet
Url: Title: